Time;durP1;ratioP1;P1;durP2;ratioP2;P2;SDS_P1;SDS_P2;PMS_P1;PMS_P2;Temp;Humidity;BMP_temperature;BMP_pressure;BME280_temperature;BME280_humidity;BME280_pressure;Samples;Min_cycle;Max_cycle;Signal;HPM_P1;HPM_P2
2021/12/15 00:01:23;;;;;;;270.33;68.73;;;;;;;;;;5007919;23;21336;-79
2021/12/15 00:03:50;;;;;;;214.27;63.67;;;;;;;;;;5029903;23;21718;-77
2021/12/15 00:06:18;;;;;;;234.00;68.17;;;;;;;;;;5035750;23;20241;-78
2021/12/15 00:08:47;;;;;;;206.17;61.00;;;;;;;;;;5028942;23;20209;-79
2021/12/15 00:11:15;;;;;;;205.63;58.90;;;;;;;;;;5044883;23;20832;-81
2021/12/15 00:13:42;;;;;;;222.57;61.90;;;;;;;;;;5015716;23;20205;-80
2021/12/15 00:16:09;;;;;;;229.87;62.00;;;;;;;;;;5073323;23;22490;-78
2021/12/15 00:18:36;;;;;;;293.40;65.73;;;;;;;;;;5058994;23;20205;-79
2021/12/15 00:21:03;;;;;;;207.67;57.83;;;;;;;;;;5050690;23;20216;-79
2021/12/15 00:23:30;;;;;;;213.37;58.27;;;;;;;;;;5031340;23;20201;-78
2021/12/15 00:25:56;;;;;;;222.07;59.60;;;;;;;;;;5048594;23;20207;-80
2021/12/15 00:28:23;;;;;;;299.47;65.90;;;;;;;;;;5041733;23;23142;-79
2021/12/15 00:30:49;;;;;;;270.00;63.27;;;;;;;;;;5048837;23;20208;-77
2021/12/15 00:33:16;;;;;;;235.07;62.63;;;;;;;;;;5033134;23;22362;-78
2021/12/15 00:35:42;;;;;;;188.50;57.30;;;;;;;;;;5041268;23;21709;-78
2021/12/15 00:38:10;;;;;;;243.07;60.13;;;;;;;;;;5055110;23;20205;-86
2021/12/15 00:40:37;;;;;;;224.47;59.03;;;;;;;;;;5036964;23;20205;-76
2021/12/15 00:43:03;;;;;;;224.90;58.03;;;;;;;;;;5070817;23;20327;-80
2021/12/15 00:45:30;;;;;;;199.57;56.27;;;;;;;;;;5056637;23;20209;-80
2021/12/15 00:47:57;;;;;;;231.23;57.60;;;;;;;;;;5047703;23;20210;-76
2021/12/15 00:50:26;;;;;;;302.83;61.57;;;;;;;;;;5063099;23;20567;-79
2021/12/15 00:52:52;;;;;;;252.33;58.40;;;;;;;;;;5071153;23;20477;-77
2021/12/15 00:55:22;;;;;;;274.37;56.17;;;;;;;;;;5043650;23;23238;-78
2021/12/15 00:57:49;;;;;;;443.47;68.60;;;;;;;;;;5046753;23;22387;-75
2021/12/15 01:00:19;;;;;;;220.80;55.53;;;;;;;;;;5071856;23;22015;-75
2021/12/15 01:02:46;;;;;;;313.93;60.33;;;;;;;;;;5034931;23;21730;-78
2021/12/15 01:05:14;;;;;;;281.57;57.03;;;;;;;;;;5015859;23;20228;-80
2021/12/15 01:07:42;;;;;;;324.40;59.57;;;;;;;;;;5030360;23;21277;-80
2021/12/15 01:10:09;;;;;;;349.13;61.53;;;;;;;;;;5039965;23;20215;-83
2021/12/15 01:20:28;;;;;;;263.57;55.30;;;;;;;;;;5031175;23;20205;-81
2021/12/15 01:22:56;;;;;;;371.30;61.53;;;;;;;;;;5040167;23;20205;-76
2021/12/15 01:25:26;;;;;;;421.23;61.80;;;;;;;;;;5031221;23;20208;-81
2021/12/15 01:27:53;;;;;;;541.00;69.40;;;;;;;;;;5025826;23;22708;-76
2021/12/15 01:30:23;;;;;;;205.40;50.70;;;;;;;;;;5058069;23;20343;-82
2021/12/15 01:32:50;;;;;;;226.23;52.93;;;;;;;;;;5061569;23;20215;-81
2021/12/15 01:35:17;;;;;;;295.07;53.47;;;;;;;;;;5034432;23;20208;-78
2021/12/15 01:37:45;;;;;;;381.00;59.63;;;;;;;;;;5059599;23;20411;-80
2021/12/15 01:40:19;;;;;;;439.40;61.90;;;;;;;;;;5046825;23;21724;-81
2021/12/15 01:42:46;;;;;;;297.23;53.13;;;;;;;;;;5064411;23;20200;-76
2021/12/15 01:47:58;;;;;;;195.63;48.77;;;;;;;;;;5036970;23;21229;-82
2021/12/15 01:50:25;;;;;;;226.17;48.77;;;;;;;;;;5056594;23;20205;-79
2021/12/15 01:52:51;;;;;;;335.57;53.43;;;;;;;;;;5068886;23;21463;-83
2021/12/15 01:55:20;;;;;;;343.67;53.47;;;;;;;;;;5043299;23;20318;-80
2021/12/15 01:57:47;;;;;;;383.60;56.63;;;;;;;;;;5041143;23;20248;-82
2021/12/15 02:00:17;;;;;;;365.23;56.33;;;;;;;;;;5044870;23;20214;-76
2021/12/15 02:02:47;;;;;;;316.50;52.33;;;;;;;;;;5026970;23;20760;-79
2021/12/15 02:05:13;;;;;;;227.30;49.77;;;;;;;;;;5037256;23;20209;-76
2021/12/15 02:07:41;;;;;;;465.33;63.00;;;;;;;;;;5048201;23;20208;-81
2021/12/15 02:10:08;;;;;;;338.10;52.23;;;;;;;;;;5039288;23;20219;-75
2021/12/15 02:12:54;;;;;;;274.30;49.73;;;;;;;;;;5034587;23;21244;-78
2021/12/15 02:15:22;;;;;;;226.40;48.03;;;;;;;;;;5054970;23;20269;-80
2021/12/15 02:17:49;;;;;;;217.60;46.73;;;;;;;;;;5035468;23;20208;-76
2021/12/15 02:20:16;;;;;;;290.10;48.30;;;;;;;;;;5033261;23;20285;-78
2021/12/15 02:22:43;;;;;;;264.03;48.87;;;;;;;;;;5040418;23;20205;-77
2021/12/15 02:25:13;;;;;;;247.80;48.23;;;;;;;;;;5037348;23;20279;-75
2021/12/15 02:27:40;;;;;;;342.03;51.50;;;;;;;;;;5051366;23;20208;-80
2021/12/15 02:30:23;;;;;;;190.83;41.70;;;;;;;;;;5044560;23;21198;-82
2021/12/15 02:33:25;;;;;;;235.70;46.67;;;;;;;;;;5054009;23;20884;-79
2021/12/15 02:38:43;;;;;;;363.27;50.27;;;;;;;;;;5049676;23;23539;-79
2021/12/15 02:41:19;;;;;;;443.77;54.33;;;;;;;;;;5038594;23;20637;-77
2021/12/15 02:43:50;;;;;;;213.60;44.13;;;;;;;;;;5034720;23;21157;-80
2021/12/15 02:46:17;;;;;;;227.00;44.47;;;;;;;;;;5035028;23;20200;-83
2021/12/15 02:48:43;;;;;;;295.30;46.80;;;;;;;;;;5024431;23;22031;-83
2021/12/15 02:51:10;;;;;;;213.63;44.57;;;;;;;;;;5041294;23;21552;-76
2021/12/15 02:53:37;;;;;;;222.83;43.43;;;;;;;;;;5048820;23;20256;-82
2021/12/15 02:56:03;;;;;;;218.90;42.47;;;;;;;;;;5058866;23;21985;-77
2021/12/15 02:58:34;;;;;;;620.53;64.87;;;;;;;;;;5039682;23;20349;-85
2021/12/15 03:01:07;;;;;;;469.67;53.07;;;;;;;;;;5036613;23;20581;-80
2021/12/15 03:04:08;;;;;;;187.57;42.03;;;;;;;;;;5026607;23;20295;-77
2021/12/15 03:06:38;;;;;;;278.23;43.00;;;;;;;;;;5039852;23;22856;-80
2021/12/15 03:15:16;;;;;;;279.23;45.00;;;;;;;;;;5026473;23;21943;-83
2021/12/15 03:17:28;;;;;;;461.43;54.07;;;;;;;;;;5038188;23;20250;-85
2021/12/15 03:19:55;;;;;;;495.60;57.13;;;;;;;;;;5045792;23;20208;-78
2021/12/15 03:22:22;;;;;;;248.33;44.57;;;;;;;;;;5045126;23;21669;-78
2021/12/15 03:24:48;;;;;;;217.50;40.63;;;;;;;;;;5044092;23;21178;-82
2021/12/15 03:27:20;;;;;;;282.47;45.40;;;;;;;;;;5027583;23;21234;-78
2021/12/15 03:35:23;;;;;;;181.50;44.17;;;;;;;;;;5039812;23;20460;-78
2021/12/15 03:37:51;;;;;;;253.10;44.90;;;;;;;;;;5030315;23;22087;-75
2021/12/15 03:40:25;;;;;;;206.70;43.37;;;;;;;;;;5055494;23;21482;-76
2021/12/15 03:42:54;;;;;;;181.50;42.33;;;;;;;;;;5034155;23;20978;-81
2021/12/15 03:45:24;;;;;;;162.67;40.00;;;;;;;;;;5044624;23;20213;-82
2021/12/15 03:47:52;;;;;;;403.53;50.87;;;;;;;;;;5044003;23;20212;-79
2021/12/15 03:50:19;;;;;;;131.33;40.23;;;;;;;;;;5015698;23;20208;-82
2021/12/15 03:52:49;;;;;;;313.53;48.67;;;;;;;;;;5030773;23;20234;-79
2021/12/15 03:55:20;;;;;;;138.47;38.17;;;;;;;;;;5060415;23;20263;-77
2021/12/15 03:57:49;;;;;;;201.63;41.60;;;;;;;;;;5043603;23;20205;-79
2021/12/15 04:00:16;;;;;;;321.53;45.20;;;;;;;;;;5023897;23;24907;-79
2021/12/15 04:02:43;;;;;;;423.30;52.30;;;;;;;;;;5016030;23;20446;-82
2021/12/15 04:05:11;;;;;;;214.60;40.57;;;;;;;;;;5015313;23;20205;-82
2021/12/15 04:07:38;;;;;;;190.50;41.27;;;;;;;;;;5019814;23;20213;-80
2021/12/15 04:10:08;;;;;;;335.70;46.17;;;;;;;;;;5038732;23;22904;-81
2021/12/15 04:12:35;;;;;;;152.83;39.13;;;;;;;;;;5009697;23;20329;-81
2021/12/15 04:18:04;;;;;;;175.70;38.77;;;;;;;;;;4945921;23;20831;-80
2021/12/15 04:20:32;;;;;;;312.57;44.37;;;;;;;;;;5045865;23;20413;-79
2021/12/15 04:22:59;;;;;;;384.97;47.90;;;;;;;;;;5005132;23;21162;-75
2021/12/15 04:25:28;;;;;;;196.03;41.43;;;;;;;;;;5047136;23;20212;-78
2021/12/15 04:27:57;;;;;;;270.07;43.83;;;;;;;;;;5033969;23;20217;-78
2021/12/15 04:30:26;;;;;;;292.63;43.17;;;;;;;;;;5030670;23;21699;-80
2021/12/15 04:32:53;;;;;;;129.70;38.53;;;;;;;;;;5021848;23;20213;-80
2021/12/15 04:35:20;;;;;;;215.20;39.53;;;;;;;;;;5021316;23;20215;-80
2021/12/15 04:37:47;;;;;;;368.60;48.47;;;;;;;;;;5029507;23;24951;-79
2021/12/15 04:40:15;;;;;;;271.13;43.53;;;;;;;;;;5032858;23;20227;-79
2021/12/15 04:42:43;;;;;;;155.93;37.63;;;;;;;;;;5027241;23;20542;-79
2021/12/15 04:45:12;;;;;;;420.97;50.83;;;;;;;;;;5020280;23;20213;-80
2021/12/15 04:47:42;;;;;;;208.87;39.17;;;;;;;;;;5016330;23;21549;-81
2021/12/15 04:50:09;;;;;;;160.40;37.43;;;;;;;;;;5019271;23;20592;-78
2021/12/15 04:52:39;;;;;;;158.93;37.00;;;;;;;;;;5046203;23;20205;-75
2021/12/15 04:55:07;;;;;;;307.83;43.50;;;;;;;;;;5014124;23;20387;-79
2021/12/15 04:57:34;;;;;;;389.80;49.07;;;;;;;;;;5002750;23;20209;-78
2021/12/15 05:00:00;;;;;;;273.10;44.80;;;;;;;;;;5039603;23;21736;-77
2021/12/15 05:02:27;;;;;;;222.50;41.40;;;;;;;;;;5020086;23;20433;-76
2021/12/15 05:04:54;;;;;;;417.93;53.47;;;;;;;;;;5018695;23;21236;-78
2021/12/15 05:07:20;;;;;;;188.50;42.07;;;;;;;;;;5041912;23;20209;-79
2021/12/15 05:09:50;;;;;;;224.80;42.20;;;;;;;;;;5029002;23;25281;-79
2021/12/15 05:12:18;;;;;;;234.40;43.00;;;;;;;;;;5029760;23;20206;-76
2021/12/15 05:14:44;;;;;;;142.83;38.07;;;;;;;;;;5029447;23;20216;-79
2021/12/15 05:17:11;;;;;;;165.07;37.97;;;;;;;;;;5024062;23;20564;-76
2021/12/15 05:19:37;;;;;;;236.40;42.50;;;;;;;;;;5058189;23;20205;-77
2021/12/15 05:22:05;;;;;;;163.07;38.37;;;;;;;;;;5035287;23;20600;-79
2021/12/15 05:24:32;;;;;;;183.53;41.17;;;;;;;;;;5038725;23;20205;-78
2021/12/15 05:27:05;;;;;;;140.43;38.07;;;;;;;;;;5037924;23;20209;-81
2021/12/15 05:29:33;;;;;;;350.57;47.87;;;;;;;;;;5007989;23;20217;-79
2021/12/15 05:31:59;;;;;;;186.80;41.00;;;;;;;;;;5035929;23;25576;-75
2021/12/15 05:34:26;;;;;;;154.73;35.57;;;;;;;;;;5034329;23;20726;-78
2021/12/15 05:36:52;;;;;;;331.80;45.67;;;;;;;;;;5037766;23;20209;-80
2021/12/15 05:39:20;;;;;;;148.20;40.60;;;;;;;;;;5028171;23;20253;-77
2021/12/15 05:41:46;;;;;;;146.60;39.53;;;;;;;;;;5024691;23;20220;-78
2021/12/15 05:44:13;;;;;;;336.43;45.47;;;;;;;;;;5028478;23;20240;-78
2021/12/15 05:46:39;;;;;;;112.50;36.03;;;;;;;;;;5033605;23;20456;-82
2021/12/15 05:49:06;;;;;;;125.00;35.07;;;;;;;;;;5038337;23;20200;-81
2021/12/15 05:51:33;;;;;;;196.23;40.63;;;;;;;;;;5036132;23;20205;-79
2021/12/15 05:53:59;;;;;;;207.77;41.57;;;;;;;;;;5033424;23;20209;-77
2021/12/15 05:56:26;;;;;;;154.33;40.73;;;;;;;;;;5018777;23;20211;-78
2021/12/15 05:58:52;;;;;;;207.30;40.77;;;;;;;;;;5042068;23;20299;-80
2021/12/15 06:01:19;;;;;;;125.87;37.23;;;;;;;;;;5049765;23;22137;-76
2021/12/15 06:03:46;;;;;;;128.03;35.10;;;;;;;;;;5056276;23;20238;-80
2021/12/15 06:06:12;;;;;;;159.03;38.13;;;;;;;;;;5032986;23;20213;-77
2021/12/15 06:08:39;;;;;;;221.33;39.93;;;;;;;;;;5013001;23;20209;-77
2021/12/15 06:11:05;;;;;;;133.43;36.00;;;;;;;;;;5055406;23;20219;-76
2021/12/15 06:13:32;;;;;;;165.27;52.53;;;;;;;;;;5025746;23;20260;-77
2021/12/15 06:15:59;;;;;;;125.10;37.40;;;;;;;;;;5033888;23;25151;-80
2021/12/15 06:18:26;;;;;;;153.60;38.30;;;;;;;;;;5052924;23;20280;-77
2021/12/15 06:20:53;;;;;;;127.53;37.93;;;;;;;;;;5020281;23;21485;-80
2021/12/15 06:23:22;;;;;;;146.87;41.87;;;;;;;;;;5050638;23;20217;-78
2021/12/15 06:25:53;;;;;;;132.17;38.60;;;;;;;;;;5045757;23;20208;-79
2021/12/15 06:28:20;;;;;;;158.83;40.07;;;;;;;;;;5042605;23;20326;-80
2021/12/15 06:30:46;;;;;;;132.17;38.03;;;;;;;;;;5027222;23;21425;-77
2021/12/15 06:33:14;;;;;;;120.13;36.97;;;;;;;;;;5041802;23;21197;-78
2021/12/15 06:35:42;;;;;;;180.10;41.87;;;;;;;;;;5024185;23;22897;-80
2021/12/15 06:38:08;;;;;;;135.30;40.07;;;;;;;;;;5046959;23;20213;-76
2021/12/15 06:40:35;;;;;;;137.03;38.93;;;;;;;;;;5048791;23;20201;-76
2021/12/15 06:43:02;;;;;;;124.93;34.33;;;;;;;;;;5033514;23;20205;-78
2021/12/15 06:45:36;;;;;;;112.53;35.27;;;;;;;;;;5047549;23;20205;-76
2021/12/15 06:59:24;;;;;;;133.80;36.17;;;;;;;;;;5021997;23;21851;-82
2021/12/15 07:01:51;;;;;;;108.43;34.13;;;;;;;;;;5049166;23;20259;-81
2021/12/15 07:04:19;;;;;;;113.50;33.93;;;;;;;;;;5043042;23;21198;-77
2021/12/15 07:06:46;;;;;;;134.90;36.10;;;;;;;;;;5046359;23;20212;-73
2021/12/15 07:09:13;;;;;;;118.17;34.90;;;;;;;;;;5041794;23;20280;-76
2021/12/15 07:11:39;;;;;;;139.40;40.00;;;;;;;;;;5061212;23;20393;-75
2021/12/15 07:14:06;;;;;;;130.27;35.10;;;;;;;;;;5063521;23;20659;-76
2021/12/15 07:16:33;;;;;;;110.87;35.40;;;;;;;;;;5046082;23;20216;-75
2021/12/15 07:21:54;;;;;;;122.73;34.63;;;;;;;;;;5047634;23;20202;-79
2021/12/15 07:24:21;;;;;;;116.50;34.63;;;;;;;;;;5032742;23;20204;-78
2021/12/15 07:26:49;;;;;;;172.83;37.30;;;;;;;;;;5026554;23;20361;-75
2021/12/15 07:29:15;;;;;;;174.03;40.37;;;;;;;;;;5033691;23;20210;-75
2021/12/15 07:31:43;;;;;;;148.53;35.13;;;;;;;;;;5037228;23;20633;-76
2021/12/15 07:34:10;;;;;;;381.97;41.83;;;;;;;;;;5017982;23;20641;-79
2021/12/15 07:36:36;;;;;;;262.10;40.77;;;;;;;;;;5056509;23;21869;-79
2021/12/15 07:39:03;;;;;;;272.23;40.70;;;;;;;;;;5059265;23;21582;-82
2021/12/15 07:41:37;;;;;;;220.67;41.77;;;;;;;;;;5023741;23;20476;-77
2021/12/15 07:44:03;;;;;;;286.33;45.40;;;;;;;;;;5021428;23;20220;-78
2021/12/15 07:46:46;;;;;;;195.73;40.70;;;;;;;;;;5012746;23;21962;-79
2021/12/15 07:49:14;;;;;;;223.13;44.13;;;;;;;;;;5018148;23;20220;-76
2021/12/15 07:51:44;;;;;;;264.33;48.27;;;;;;;;;;5047184;23;21186;-77
2021/12/15 07:54:11;;;;;;;156.57;40.50;;;;;;;;;;5013983;23;20210;-75
2021/12/15 07:56:38;;;;;;;122.43;35.77;;;;;;;;;;5027055;23;20466;-79
2021/12/15 07:59:05;;;;;;;190.20;39.23;;;;;;;;;;5041361;23;20209;-74
2021/12/15 08:01:31;;;;;;;307.47;44.93;;;;;;;;;;5037039;23;20219;-74
2021/12/15 08:03:58;;;;;;;161.43;38.17;;;;;;;;;;5039738;23;20240;-82
2021/12/15 08:06:26;;;;;;;337.83;46.47;;;;;;;;;;5036413;23;20292;-77
2021/12/15 08:08:53;;;;;;;229.03;41.67;;;;;;;;;;5043152;23;20231;-77
2021/12/15 08:11:19;;;;;;;185.10;40.57;;;;;;;;;;5051709;23;20487;-75
2021/12/15 08:13:46;;;;;;;204.73;41.73;;;;;;;;;;5022117;23;20453;-77
2021/12/15 08:16:14;;;;;;;174.00;39.57;;;;;;;;;;5007307;23;20301;-75
2021/12/15 08:18:41;;;;;;;222.23;39.67;;;;;;;;;;5566650;23;20270;-82
2021/12/15 08:21:09;;;;;;;156.37;37.93;;;;;;;;;;6085564;23;20303;-82
2021/12/15 08:23:35;;;;;;;210.53;41.70;;;;;;;;;;5259842;23;20265;-76
2021/12/15 08:26:03;;;;;;;198.60;41.87;;;;;;;;;;5042666;23;20217;-76
2021/12/15 08:28:29;;;;;;;145.60;40.43;;;;;;;;;;5046415;23;20209;-77
2021/12/15 08:30:59;;;;;;;151.10;39.23;;;;;;;;;;5027325;23;20772;-76
2021/12/15 08:33:26;;;;;;;270.67;44.60;;;;;;;;;;5039220;23;21625;-77
2021/12/15 08:35:58;;;;;;;233.83;41.23;;;;;;;;;;5040003;23;20276;-74
2021/12/15 08:38:28;;;;;;;161.77;37.67;;;;;;;;;;5056469;23;20302;-75
2021/12/15 08:40:55;;;;;;;176.93;37.23;;;;;;;;;;5013052;23;20213;-74
2021/12/15 08:43:22;;;;;;;207.57;36.80;;;;;;;;;;5011929;23;22090;-74
2021/12/15 08:46:04;;;;;;;176.90;35.17;;;;;;;;;;5039385;23;20645;-75
2021/12/15 08:48:33;;;;;;;181.47;34.37;;;;;;;;;;5041674;23;20260;-73
2021/12/15 08:50:59;;;;;;;141.87;33.27;;;;;;;;;;5016733;23;20215;-76
2021/12/15 08:53:26;;;;;;;236.47;38.53;;;;;;;;;;5045082;23;20296;-74
2021/12/15 08:55:53;;;;;;;238.33;40.83;;;;;;;;;;5013477;23;20211;-74
2021/12/15 08:58:20;;;;;;;181.70;35.50;;;;;;;;;;5028244;23;21699;-77
2021/12/15 09:00:47;;;;;;;181.30;36.03;;;;;;;;;;5031595;23;20212;-78
2021/12/15 09:03:14;;;;;;;242.37;40.60;;;;;;;;;;5024655;23;20334;-76
2021/12/15 09:05:41;;;;;;;152.33;35.47;;;;;;;;;;5043859;23;20212;-76
2021/12/15 09:08:08;;;;;;;169.97;35.40;;;;;;;;;;5018473;23;20319;-75
2021/12/15 09:10:35;;;;;;;177.63;36.50;;;;;;;;;;5023429;23;20748;-76
2021/12/15 09:13:03;;;;;;;175.07;34.87;;;;;;;;;;5041576;23;20206;-75
2021/12/15 09:15:30;;;;;;;136.57;33.17;;;;;;;;;;5032276;23;20212;-75
2021/12/15 09:17:56;;;;;;;140.80;34.37;;;;;;;;;;5037886;23;21151;-77
2021/12/15 09:20:24;;;;;;;105.03;32.30;;;;;;;;;;5045704;23;20212;-78
2021/12/15 09:22:51;;;;;;;146.77;34.17;;;;;;;;;;5019555;23;21495;-77
2021/12/15 09:25:18;;;;;;;118.03;34.73;;;;;;;;;;5025275;23;20217;-78
2021/12/15 09:27:45;;;;;;;115.67;33.83;;;;;;;;;;5022948;23;20205;-79
2021/12/15 09:30:14;;;;;;;180.97;38.03;;;;;;;;;;5023496;23;20557;-76
2021/12/15 09:32:41;;;;;;;126.73;32.40;;;;;;;;;;5003810;23;22402;-78
2021/12/15 09:35:09;;;;;;;109.70;31.63;;;;;;;;;;5033617;23;20884;-76
2021/12/15 09:37:35;;;;;;;143.03;33.80;;;;;;;;;;5031760;23;20213;-74
2021/12/15 09:40:04;;;;;;;139.73;33.70;;;;;;;;;;5043005;23;21094;-80
2021/12/15 09:42:35;;;;;;;114.13;32.07;;;;;;;;;;5034614;23;21334;-74
2021/12/15 09:45:19;;;;;;;125.00;33.83;;;;;;;;;;5013857;23;20213;-75
2021/12/15 09:48:05;;;;;;;114.33;32.63;;;;;;;;;;5034358;23;20207;-73
2021/12/15 10:04:44;;;;;;;138.43;32.67;;;;;;;;;;5033133;23;20209;-75
2021/12/15 10:18:06;;;;;;;95.63;26.60;;;;;;;;;;5038130;23;20209;-77
2021/12/15 10:20:36;;;;;;;107.43;26.53;;;;;;;;;;5054265;23;20246;-78
2021/12/15 10:23:04;;;;;;;155.93;27.70;;;;;;;;;;5066223;23;20621;-74
2021/12/15 10:25:43;;;;;;;122.93;29.10;;;;;;;;;;5034511;23;20208;-76
2021/12/15 10:28:18;;;;;;;135.37;28.33;;;;;;;;;;5006374;23;21111;-77
2021/12/15 10:30:52;;;;;;;101.17;27.03;;;;;;;;;;5041608;23;20209;-77
2021/12/15 10:33:22;;;;;;;138.27;28.97;;;;;;;;;;5028224;23;21626;-79
2021/12/15 10:35:50;;;;;;;126.50;27.40;;;;;;;;;;5063567;23;20212;-79
2021/12/15 10:38:22;;;;;;;120.20;28.33;;;;;;;;;;5031032;23;21593;-78
2021/12/15 10:41:07;;;;;;;151.87;29.23;;;;;;;;;;5070746;23;20322;-85
2021/12/15 10:43:54;;;;;;;108.63;27.47;;;;;;;;;;5091217;23;20205;-84
2021/12/15 10:46:22;;;;;;;93.40;24.57;;;;;;;;;;5082143;23;22202;-78
2021/12/15 10:48:57;;;;;;;162.07;26.80;;;;;;;;;;5039228;23;20245;-78
2021/12/15 10:51:47;;;;;;;154.10;27.13;;;;;;;;;;5048475;23;21488;-77
2021/12/15 10:54:35;;;;;;;103.20;24.83;;;;;;;;;;5013444;23;20327;-79
2021/12/15 10:57:08;;;;;;;112.03;26.17;;;;;;;;;;5056702;23;22883;-79
2021/12/15 10:59:37;;;;;;;113.33;26.53;;;;;;;;;;5032831;23;20214;-79
2021/12/15 11:02:05;;;;;;;124.77;26.30;;;;;;;;;;5022773;23;22782;-82
2021/12/15 11:04:38;;;;;;;92.83;26.17;;;;;;;;;;5023287;23;20592;-79
2021/12/15 11:07:14;;;;;;;111.47;26.33;;;;;;;;;;5044921;23;20779;-79
2021/12/15 11:09:43;;;;;;;156.57;27.70;;;;;;;;;;5034920;23;20212;-78
2021/12/15 11:12:35;;;;;;;195.03;29.60;;;;;;;;;;5029732;23;20208;-80
2021/12/15 11:15:02;;;;;;;136.93;26.27;;;;;;;;;;5040503;23;20427;-76
2021/12/15 11:17:31;;;;;;;201.07;28.90;;;;;;;;;;5047652;23;20696;-78
2021/12/15 11:20:00;;;;;;;169.70;30.00;;;;;;;;;;5061363;23;20205;-80
2021/12/15 11:22:30;;;;;;;145.93;27.53;;;;;;;;;;5020010;23;21282;-79
2021/12/15 11:24:57;;;;;;;135.57;28.17;;;;;;;;;;5057183;23;23055;-79
2021/12/15 11:27:23;;;;;;;107.73;28.17;;;;;;;;;;5072637;23;21170;-79
2021/12/15 11:29:50;;;;;;;100.17;27.77;;;;;;;;;;5033126;23;21574;-79
2021/12/15 11:32:35;;;;;;;128.37;28.40;;;;;;;;;;5038261;23;20259;-81
2021/12/15 11:35:06;;;;;;;188.73;28.07;;;;;;;;;;5044622;23;20219;-78
2021/12/15 11:37:45;;;;;;;146.73;27.17;;;;;;;;;;5020674;23;21148;-79
2021/12/15 11:40:12;;;;;;;165.63;26.47;;;;;;;;;;5038555;23;20249;-79
2021/12/15 11:42:39;;;;;;;119.97;28.33;;;;;;;;;;5024419;23;21167;-81
2021/12/15 11:45:07;;;;;;;138.07;27.87;;;;;;;;;;5045792;23;20214;-80
2021/12/15 11:47:33;;;;;;;147.40;29.60;;;;;;;;;;5044204;23;20611;-80
2021/12/15 11:50:10;;;;;;;122.13;28.27;;;;;;;;;;5037194;23;20215;-78
2021/12/15 11:52:39;;;;;;;95.83;26.77;;;;;;;;;;5047107;23;20216;-81
2021/12/15 11:55:07;;;;;;;99.70;28.53;;;;;;;;;;5025211;23;21180;-81
2021/12/15 11:57:34;;;;;;;155.97;27.10;;;;;;;;;;5034505;23;26136;-82
2021/12/15 12:00:10;;;;;;;117.37;27.10;;;;;;;;;;5027276;23;20207;-78
2021/12/15 12:02:47;;;;;;;115.80;27.20;;;;;;;;;;5041582;23;21065;-83
2021/12/15 12:05:18;;;;;;;99.57;25.60;;;;;;;;;;5017284;23;21544;-82
2021/12/15 12:07:48;;;;;;;98.60;26.30;;;;;;;;;;5023700;23;20205;-83
2021/12/15 12:10:22;;;;;;;81.43;24.60;;;;;;;;;;5022120;23;20244;-79
2021/12/15 12:13:03;;;;;;;101.70;28.63;;;;;;;;;;5020876;23;21363;-80
2021/12/15 12:15:30;;;;;;;102.23;26.30;;;;;;;;;;5032191;23;21267;-78
2021/12/15 12:18:02;;;;;;;86.13;25.47;;;;;;;;;;5036822;23;20205;-81
2021/12/15 12:20:30;;;;;;;181.77;28.00;;;;;;;;;;5023443;23;21649;-80
2021/12/15 12:22:57;;;;;;;122.00;29.60;;;;;;;;;;5034111;23;20354;-80
2021/12/15 12:25:26;;;;;;;115.37;30.20;;;;;;;;;;5023829;23;20212;-74
2021/12/15 12:27:54;;;;;;;125.30;30.63;;;;;;;;;;5010805;23;20205;-77
2021/12/15 12:30:23;;;;;;;97.03;29.13;;;;;;;;;;5044721;23;20205;-75
2021/12/15 12:32:49;;;;;;;106.80;30.23;;;;;;;;;;5038633;23;20209;-80
2021/12/15 12:35:17;;;;;;;107.13;30.27;;;;;;;;;;5048831;23;20216;-74
2021/12/15 12:37:49;;;;;;;130.80;31.77;;;;;;;;;;5040633;23;20205;-75
2021/12/15 12:40:26;;;;;;;120.80;32.27;;;;;;;;;;5016000;23;20209;-77
2021/12/15 12:42:53;;;;;;;124.17;32.70;;;;;;;;;;5021261;23;20315;-74
2021/12/15 12:45:29;;;;;;;125.70;32.43;;;;;;;;;;5024613;23;20273;-73
2021/12/15 12:48:26;;;;;;;139.47;36.83;;;;;;;;;;5033330;23;20212;-75
2021/12/15 12:59:25;;;;;;;189.37;39.80;;;;;;;;;;5079216;23;21760;-77
2021/12/15 13:01:52;;;;;;;172.17;37.50;;;;;;;;;;5102825;23;21753;-74
2021/12/15 13:04:19;;;;;;;128.30;34.00;;;;;;;;;;5046668;23;20211;-77
2021/12/15 13:06:46;;;;;;;165.93;37.70;;;;;;;;;;5038260;23;20208;-75
2021/12/15 13:09:19;;;;;;;156.63;36.23;;;;;;;;;;5026501;23;20255;-75
2021/12/15 13:11:49;;;;;;;152.00;36.53;;;;;;;;;;5026902;23;20637;-74
2021/12/15 13:14:20;;;;;;;180.13;39.20;;;;;;;;;;5053724;23;20204;-73
2021/12/15 13:16:52;;;;;;;158.57;36.77;;;;;;;;;;5012585;23;20210;-75
2021/12/15 13:19:27;;;;;;;185.73;39.17;;;;;;;;;;5008653;23;21739;-78
2021/12/15 13:30:22;;;;;;;164.57;39.97;;;;;;;;;;5027018;23;21269;-76
2021/12/15 13:32:48;;;;;;;218.00;43.93;;;;;;;;;;5018623;23;20316;-77
2021/12/15 13:35:25;;;;;;;162.80;40.67;;;;;;;;;;5020558;23;20306;-75
2021/12/15 13:37:57;;;;;;;153.30;38.80;;;;;;;;;;5025996;23;21926;-78
2021/12/15 13:40:42;;;;;;;135.87;38.90;;;;;;;;;;5019399;23;20203;-78
2021/12/15 13:43:28;;;;;;;146.13;39.50;;;;;;;;;;5034534;23;20222;-75
2021/12/15 13:45:55;;;;;;;141.93;35.87;;;;;;;;;;5041102;23;20201;-77
2021/12/15 13:48:47;;;;;;;140.17;37.70;;;;;;;;;;5049501;23;20205;-77
2021/12/15 13:51:14;;;;;;;134.10;37.50;;;;;;;;;;5052743;23;20334;-77
2021/12/15 13:53:41;;;;;;;146.23;39.37;;;;;;;;;;5052462;23;20270;-77
2021/12/15 13:56:08;;;;;;;135.80;36.20;;;;;;;;;;5047280;23;22193;-81
2021/12/15 13:58:34;;;;;;;132.47;36.00;;;;;;;;;;5057620;23;21545;-79
2021/12/15 14:01:03;;;;;;;136.30;37.50;;;;;;;;;;5037615;23;21588;-83
2021/12/15 14:03:33;;;;;;;146.17;38.57;;;;;;;;;;5056195;23;20251;-82
2021/12/15 14:06:02;;;;;;;127.93;35.90;;;;;;;;;;5080942;23;20277;-88
2021/12/15 14:08:31;;;;;;;135.63;36.33;;;;;;;;;;5039118;23;21501;-77
2021/12/15 14:11:03;;;;;;;149.57;38.17;;;;;;;;;;5016869;23;21813;-81
2021/12/15 14:13:38;;;;;;;160.73;38.23;;;;;;;;;;5074868;23;20224;-79
2021/12/15 14:16:04;;;;;;;147.50;39.53;;;;;;;;;;5057925;23;20213;-81
2021/12/15 14:18:32;;;;;;;170.40;40.40;;;;;;;;;;5099305;23;20205;-78
2021/12/15 14:21:02;;;;;;;132.93;38.33;;;;;;;;;;5033382;23;20621;-79
2021/12/15 14:23:33;;;;;;;156.57;41.90;;;;;;;;;;5054883;23;20272;-81
2021/12/15 14:26:09;;;;;;;155.37;41.37;;;;;;;;;;5045811;23;20265;-82
2021/12/15 14:28:41;;;;;;;150.87;42.97;;;;;;;;;;5048860;23;21122;-79
2021/12/15 14:31:12;;;;;;;155.80;44.07;;;;;;;;;;5023246;23;23432;-80
2021/12/15 14:33:40;;;;;;;145.37;40.77;;;;;;;;;;5037015;23;20745;-77
2021/12/15 14:36:10;;;;;;;134.37;41.73;;;;;;;;;;5074920;23;20570;-79
2021/12/15 14:38:38;;;;;;;137.13;40.37;;;;;;;;;;5069457;23;20212;-81
2021/12/15 14:41:06;;;;;;;156.37;43.33;;;;;;;;;;5062696;23;20511;-79
